createdAt,value
2023-07-17T00:00:17.411Z,1.70
2023-07-17T00:02:44.586Z,1.83
2023-07-17T00:05:11.949Z,1.95
2023-07-17T00:07:40.410Z,1.45
2023-07-17T00:10:11.297Z,2.03
2023-07-17T00:12:39.102Z,2.00
2023-07-17T00:15:06.819Z,1.98
2023-07-17T00:17:35.447Z,1.83
2023-07-17T00:20:04.246Z,1.90
2023-07-17T00:22:31.407Z,1.95
2023-07-17T00:24:58.493Z,1.80
2023-07-17T00:27:25.535Z,1.73
2023-07-17T00:29:53.546Z,1.75
2023-07-17T00:32:21.304Z,1.55
2023-07-17T00:34:48.231Z,2.30
2023-07-17T00:37:15.080Z,1.83
2023-07-17T00:39:42.082Z,1.67
2023-07-17T00:42:08.980Z,2.15
2023-07-17T00:44:39.485Z,2.17
2023-07-17T00:47:06.877Z,1.83
2023-07-17T00:49:34.657Z,2.40
2023-07-17T00:52:02.682Z,1.80
2023-07-17T00:54:30.426Z,1.65
2023-07-17T00:56:59.344Z,1.65
2023-07-17T00:59:26.811Z,1.63
2023-07-17T01:01:54.357Z,1.80
2023-07-17T01:04:21.343Z,2.10
2023-07-17T01:06:48.247Z,1.90
2023-07-17T01:09:17.858Z,1.85
2023-07-17T01:11:45.190Z,1.83
2023-07-17T01:14:18.983Z,2.15
2023-07-17T01:16:50.272Z,2.20
2023-07-17T01:19:17.563Z,2.25
2023-07-17T01:21:53.169Z,2.05
2023-07-17T01:24:20.856Z,1.98
2023-07-17T01:26:48.514Z,2.20
2023-07-17T01:29:15.862Z,2.22
2023-07-17T01:31:43.794Z,2.17
2023-07-17T01:34:11.245Z,2.30
2023-07-17T01:36:38.311Z,2.30
2023-07-17T01:39:06.002Z,1.80
2023-07-17T01:41:33.006Z,2.17
2023-07-17T01:44:00.917Z,2.00
2023-07-17T01:46:30.420Z,1.90
2023-07-17T01:48:57.385Z,1.83
2023-07-17T01:51:24.296Z,2.08
2023-07-17T01:53:51.331Z,2.20
2023-07-17T01:56:18.466Z,2.13
2023-07-17T01:58:45.394Z,2.42
2023-07-17T02:01:12.376Z,2.05
2023-07-17T02:03:39.324Z,2.33
2023-07-17T02:06:07.353Z,2.22
2023-07-17T02:08:34.747Z,2.25
2023-07-17T02:11:01.903Z,2.40
2023-07-17T02:13:28.801Z,2.63
2023-07-17T02:15:55.871Z,2.15
2023-07-17T02:18:22.837Z,2.45
2023-07-17T02:20:52.766Z,2.90
2023-07-17T02:23:19.856Z,3.13
2023-07-17T02:25:46.782Z,2.15
2023-07-17T02:28:16.489Z,2.03
2023-07-17T02:30:44.097Z,3.03
2023-07-17T02:33:11.263Z,2.25
2023-07-17T02:35:38.189Z,2.58
2023-07-17T02:38:05.056Z,2.50
2023-07-17T02:40:31.949Z,2.70
2023-07-17T02:42:58.958Z,2.10
2023-07-17T02:45:26.104Z,2.40
2023-07-17T02:47:55.292Z,2.60
2023-07-17T02:50:22.242Z,2.25
2023-07-17T02:52:49.077Z,2.90
2023-07-17T02:55:16.047Z,2.30
2023-07-17T02:57:43.216Z,2.53
2023-07-17T03:00:13.496Z,2.50
2023-07-17T03:02:42.323Z,2.85
2023-07-17T03:05:10.200Z,2.42
2023-07-17T03:07:56.962Z,2.17
2023-07-17T03:10:23.986Z,3.03
2023-07-17T03:12:50.828Z,2.53
2023-07-17T03:15:17.823Z,3.05
2023-07-17T03:17:44.814Z,3.25
2023-07-17T03:20:12.206Z,3.28
2023-07-17T03:22:39.179Z,2.83
2023-07-17T03:25:07.039Z,3.33
2023-07-17T03:27:34.399Z,3.42
2023-07-17T03:30:01.290Z,3.60
2023-07-17T03:32:33.259Z,3.08
2023-07-17T03:35:00.156Z,3.13
2023-07-17T03:37:27.008Z,3.00
2023-07-17T03:39:59.748Z,2.97
2023-07-17T03:42:26.824Z,3.03
2023-07-17T03:44:53.668Z,3.25
2023-07-17T03:47:20.717Z,3.22
2023-07-17T03:49:47.641Z,3.30
2023-07-17T03:52:14.528Z,3.20
2023-07-17T03:54:43.657Z,3.63
2023-07-17T03:57:10.503Z,3.53
2023-07-17T03:59:56.583Z,3.53
2023-07-17T04:02:23.945Z,3.85
2023-07-17T04:04:51.807Z,4.00
2023-07-17T04:07:18.748Z,3.08
2023-07-17T04:09:45.619Z,2.72
2023-07-17T04:12:13.289Z,3.55
2023-07-17T04:14:40.215Z,3.03
2023-07-17T04:17:07.321Z,3.17
2023-07-17T04:19:34.550Z,2.97
2023-07-17T04:22:01.675Z,3.15
2023-07-17T04:24:29.927Z,2.72
2023-07-17T04:26:56.885Z,2.80
2023-07-17T04:29:23.992Z,2.80
2023-07-17T04:31:50.987Z,2.67
2023-07-17T04:34:18.297Z,2.83
2023-07-17T04:36:45.640Z,3.03
2023-07-17T04:39:12.624Z,3.28
2023-07-17T04:41:40.260Z,2.85
2023-07-17T04:44:07.180Z,2.55
2023-07-17T04:46:34.981Z,3.38
2023-07-17T04:49:01.913Z,2.75
2023-07-17T04:51:30.534Z,2.60
2023-07-17T04:53:57.475Z,2.90
2023-07-17T04:56:24.431Z,3.42
2023-07-17T04:58:51.300Z,3.22
2023-07-17T05:01:18.541Z,2.95
2023-07-17T05:03:45.807Z,3.78
2023-07-17T05:06:12.755Z,3.22
2023-07-17T05:08:39.638Z,3.30
2023-07-17T05:11:06.640Z,3.28
2023-07-17T05:13:33.512Z,3.33
2023-07-17T05:16:00.395Z,3.10
2023-07-17T05:18:30.249Z,3.22
2023-07-17T05:21:03.082Z,3.35
2023-07-17T05:23:31.901Z,4.35
2023-07-17T05:26:01.104Z,3.08
2023-07-17T05:28:30.861Z,3.72
2023-07-17T05:31:00.740Z,3.60
2023-07-17T05:33:35.286Z,3.42
2023-07-17T05:36:02.110Z,3.30
2023-07-17T05:38:30.409Z,3.53
2023-07-17T05:44:15.474Z,4.03
2023-07-17T05:46:43.953Z,3.65
2023-07-17T05:49:10.950Z,4.47
2023-07-17T05:51:37.792Z,3.60
2023-07-17T05:54:04.683Z,4.30
2023-07-17T05:56:32.630Z,3.38
2023-07-17T05:58:59.603Z,3.40
2023-07-17T06:01:26.608Z,4.13
2023-07-17T06:03:55.212Z,4.40
2023-07-17T06:06:22.159Z,4.00
2023-07-17T06:08:49.155Z,3.60
2023-07-17T06:11:16.377Z,4.07
2023-07-17T06:13:43.349Z,3.70
2023-07-17T06:16:10.348Z,4.20
2023-07-17T06:18:37.330Z,3.75
2023-07-17T06:21:04.657Z,3.95
2023-07-17T06:23:33.015Z,4.38
2023-07-17T06:26:01.816Z,4.68
2023-07-17T06:28:31.013Z,4.45
2023-07-17T06:30:57.910Z,4.82
2023-07-17T06:33:24.975Z,5.07
2023-07-17T06:35:52.434Z,3.85
2023-07-17T06:38:19.310Z,4.78
2023-07-17T06:40:46.129Z,4.93
2023-07-17T06:43:13.044Z,4.43
2023-07-17T06:45:41.055Z,5.20
2023-07-17T06:48:08.072Z,4.90
2023-07-17T06:50:34.990Z,4.60
2023-07-17T06:53:01.888Z,4.35
2023-07-17T06:55:30.634Z,5.97
2023-07-17T06:57:57.520Z,4.63
2023-07-17T07:00:24.487Z,4.75
2023-07-17T07:02:51.449Z,5.80
2023-07-17T07:05:18.468Z,5.28
2023-07-17T07:07:45.382Z,5.22
2023-07-17T07:10:12.294Z,4.78
2023-07-17T07:12:39.157Z,6.03
2023-07-17T07:15:08.084Z,4.32
2023-07-17T07:17:35.280Z,6.57
2023-07-17T07:20:02.562Z,5.40
2023-07-17T07:22:29.667Z,5.03
2023-07-17T07:24:56.524Z,5.70
2023-07-17T07:27:24.057Z,4.88
2023-07-17T07:29:51.105Z,5.05
2023-07-17T07:32:18.763Z,5.18
2023-07-17T07:34:46.095Z,4.35
2023-07-17T07:37:12.953Z,4.80
2023-07-17T07:39:39.796Z,5.18
2023-07-17T07:42:07.402Z,5.28
2023-07-17T07:44:34.297Z,4.93
2023-07-17T07:47:01.170Z,5.00
2023-07-17T07:49:28.012Z,4.43
2023-07-17T07:51:56.315Z,4.72
2023-07-17T07:54:23.299Z,5.05
2023-07-17T07:56:51.668Z,4.63
2023-07-17T07:59:19.070Z,4.05
2023-07-17T08:01:46.087Z,4.40
2023-07-17T08:04:13.221Z,4.65
2023-07-17T08:06:40.113Z,4.57
2023-07-17T08:09:07.206Z,4.32
2023-07-17T08:11:34.117Z,4.80
2023-07-17T08:14:01.455Z,4.20
2023-07-17T08:16:29.822Z,5.50
2023-07-17T08:18:56.751Z,4.57
2023-07-17T08:21:23.737Z,4.55
2023-07-17T08:23:50.644Z,4.88
2023-07-17T08:26:17.543Z,4.05
2023-07-17T08:28:44.461Z,3.92
2023-07-17T08:31:11.416Z,4.07
2023-07-17T08:33:38.431Z,3.47
2023-07-17T08:36:05.553Z,3.80
2023-07-17T08:38:32.455Z,4.28
2023-07-17T08:41:03.634Z,4.40
2023-07-17T08:43:31.044Z,5.93
2023-07-17T08:46:00.884Z,4.20
2023-07-17T08:48:29.276Z,4.22
2023-07-17T08:50:58.210Z,3.95
2023-07-17T08:53:27.202Z,4.25
2023-07-17T08:55:58.043Z,4.38
2023-07-17T08:58:25.363Z,3.88
2023-07-17T09:00:52.392Z,3.65
2023-07-17T09:03:20.286Z,4.38
2023-07-17T09:05:47.396Z,4.35
2023-07-17T09:08:14.883Z,3.88
2023-07-17T09:10:42.556Z,3.78
2023-07-17T09:13:10.360Z,4.03
2023-07-17T09:15:40.445Z,3.72
2023-07-17T09:18:07.677Z,5.78
2023-07-17T09:20:34.939Z,4.40
2023-07-17T09:23:02.661Z,3.67
2023-07-17T09:25:31.584Z,3.95
2023-07-17T09:28:00.012Z,3.70
2023-07-17T09:30:28.465Z,3.67
2023-07-17T09:33:05.983Z,3.05
2023-07-17T09:35:33.401Z,3.83
2023-07-17T09:38:00.733Z,3.05
2023-07-17T09:40:28.893Z,3.80
2023-07-17T09:42:57.030Z,3.65
2023-07-17T09:45:25.756Z,3.80
2023-07-17T09:47:53.069Z,4.20
2023-07-17T09:50:21.338Z,4.43
2023-07-17T09:52:51.346Z,3.90
2023-07-17T09:55:21.199Z,4.70
2023-07-17T09:57:50.511Z,3.35
2023-07-17T10:00:20.245Z,4.43
2023-07-17T10:02:57.158Z,3.63
2023-07-17T10:05:24.405Z,3.30
2023-07-17T10:07:53.521Z,4.30
2023-07-17T10:10:20.937Z,4.30
2023-07-17T10:12:48.906Z,5.57
2023-07-17T10:15:16.451Z,4.20
2023-07-17T10:17:43.751Z,3.95
2023-07-17T10:20:12.536Z,4.50
2023-07-17T10:22:45.878Z,4.53
2023-07-17T10:25:19.083Z,3.95
2023-07-17T10:28:03.226Z,4.10
2023-07-17T10:30:37.707Z,3.75
2023-07-17T10:33:09.040Z,3.58
2023-07-17T10:35:48.046Z,4.35
2023-07-17T10:38:19.683Z,3.40
2023-07-17T10:40:46.876Z,3.55
2023-07-17T10:43:16.452Z,3.90
2023-07-17T10:45:44.227Z,3.15
2023-07-17T10:48:12.485Z,3.70
2023-07-17T10:50:47.433Z,3.83
2023-07-17T10:53:14.402Z,4.35
2023-07-17T10:55:41.907Z,3.75
2023-07-17T10:58:09.858Z,3.22
2023-07-17T11:00:36.715Z,3.60
2023-07-17T11:03:04.551Z,3.92
2023-07-17T11:05:37.965Z,4.30
2023-07-17T11:08:06.074Z,3.58
2023-07-17T11:10:33.313Z,3.08
2023-07-17T11:13:04.576Z,2.33
2023-07-17T11:15:36.870Z,2.92
2023-07-17T11:18:05.713Z,2.40
2023-07-17T11:20:33.542Z,2.78
2023-07-17T11:23:00.944Z,2.45
2023-07-17T11:25:36.900Z,2.05
2023-07-17T11:28:04.058Z,1.95
2023-07-17T11:30:33.553Z,2.13
2023-07-17T11:33:07.015Z,2.35
2023-07-17T11:35:48.799Z,2.55
2023-07-17T11:38:19.416Z,2.30
2023-07-17T11:40:53.149Z,2.35
2023-07-17T11:43:31.876Z,2.08
2023-07-17T11:46:03.597Z,2.42
2023-07-17T11:48:33.287Z,2.30
2023-07-17T11:51:03.987Z,2.25
2023-07-17T11:53:31.623Z,1.63
2023-07-17T11:56:03.745Z,2.10
2023-07-17T11:58:36.618Z,1.90
2023-07-17T12:01:04.940Z,1.60
2023-07-17T12:03:31.942Z,1.95
2023-07-17T12:05:58.818Z,1.88
2023-07-17T12:08:25.716Z,1.85
2023-07-17T12:10:52.749Z,1.60
2023-07-17T12:13:19.608Z,1.50
2023-07-17T12:15:46.550Z,1.83
2023-07-17T12:18:13.413Z,1.92
2023-07-17T12:20:40.352Z,1.65
2023-07-17T12:23:10.326Z,1.60
2023-07-17T12:25:40.927Z,1.40
2023-07-17T12:28:08.724Z,1.70
2023-07-17T12:30:35.663Z,2.35
2023-07-17T12:33:02.597Z,1.83
2023-07-17T12:35:30.299Z,1.58
2023-07-17T12:37:57.839Z,1.90
2023-07-17T12:40:25.347Z,1.80
2023-07-17T12:42:52.226Z,1.80
2023-07-17T12:45:19.370Z,2.50
2023-07-17T12:47:46.412Z,2.95
2023-07-17T12:50:13.463Z,3.05
2023-07-17T12:52:40.346Z,4.15
2023-07-17T12:55:08.014Z,2.05
2023-07-17T12:57:41.355Z,2.20
2023-07-17T13:00:09.642Z,3.25
2023-07-17T13:02:36.741Z,3.05
2023-07-17T13:05:04.440Z,3.75
2023-07-17T13:07:31.568Z,2.60
2023-07-17T13:09:59.668Z,3.17
2023-07-17T13:12:42.089Z,3.17
2023-07-17T13:15:14.516Z,3.67
2023-07-17T13:17:46.180Z,4.82
2023-07-17T13:20:14.131Z,4.40
2023-07-17T13:22:41.482Z,3.85
2023-07-17T13:25:08.855Z,4.95
2023-07-17T13:27:35.866Z,4.38
2023-07-17T13:30:03.224Z,4.65
2023-07-17T13:32:30.179Z,3.78
2023-07-17T13:34:57.427Z,5.40
2023-07-17T13:37:24.286Z,4.68
2023-07-17T13:39:51.215Z,4.00
2023-07-17T13:42:18.251Z,3.97
2023-07-17T13:44:45.079Z,3.63
2023-07-17T13:47:12.020Z,3.80
2023-07-17T13:49:38.959Z,3.30
2023-07-17T13:52:06.354Z,2.95
2023-07-17T13:54:33.253Z,2.72
2023-07-17T13:57:03.747Z,2.40
2023-07-17T13:59:30.728Z,2.15
2023-07-17T14:01:57.898Z,1.42
2023-07-17T14:04:24.825Z,1.55
2023-07-17T14:06:51.775Z,1.55
2023-07-17T14:09:18.616Z,1.35
2023-07-17T14:11:45.783Z,1.40
2023-07-17T14:14:13.046Z,1.50
2023-07-17T14:16:40.185Z,1.67
2023-07-17T14:19:07.125Z,1.63
2023-07-17T14:21:34.055Z,1.80
2023-07-17T14:24:01.075Z,1.90
2023-07-17T14:26:27.972Z,1.38
2023-07-17T14:28:54.880Z,1.50
2023-07-17T14:31:21.943Z,1.42
2023-07-17T14:33:52.098Z,1.20
2023-07-17T14:36:19.237Z,1.83
2023-07-17T14:38:46.297Z,1.67
2023-07-17T14:41:13.327Z,1.95
2023-07-17T14:43:40.676Z,2.00
2023-07-17T14:46:07.754Z,1.60
2023-07-17T14:48:34.837Z,2.15
2023-07-17T14:51:01.989Z,1.60
2023-07-17T14:53:29.023Z,2.13
2023-07-17T14:55:56.028Z,1.60
2023-07-17T14:58:23.558Z,1.80
2023-07-17T15:00:52.870Z,1.75
2023-07-17T15:03:20.091Z,1.60
2023-07-17T15:05:47.147Z,2.40
2023-07-17T15:08:14.068Z,2.30
2023-07-17T15:10:41.000Z,2.90
2023-07-17T15:13:15.988Z,2.92
2023-07-17T15:16:14.916Z,2.75
2023-07-17T15:18:44.299Z,2.83
2023-07-17T15:21:11.735Z,2.75
2023-07-17T15:23:38.995Z,2.30
2023-07-17T15:26:05.915Z,3.33
2023-07-17T15:28:32.786Z,3.03
2023-07-17T15:30:59.745Z,2.88
2023-07-17T15:33:28.630Z,2.70
2023-07-17T15:35:55.741Z,2.65
2023-07-17T15:38:22.823Z,2.90
2023-07-17T15:40:51.130Z,3.05
2023-07-17T15:43:19.308Z,3.42
2023-07-17T15:45:46.215Z,3.10
2023-07-17T15:48:13.578Z,3.47
2023-07-17T15:50:40.666Z,3.22
2023-07-17T15:53:07.575Z,3.22
2023-07-17T15:55:34.433Z,3.15
2023-07-17T15:58:01.296Z,3.00
2023-07-17T16:00:29.228Z,3.83
2023-07-17T16:02:56.256Z,3.42
2023-07-17T16:05:23.176Z,3.45
2023-07-17T16:07:50.071Z,3.00
2023-07-17T16:10:17.124Z,2.80
2023-07-17T16:12:44.253Z,2.70
2023-07-17T16:15:11.785Z,2.78
2023-07-17T16:17:38.810Z,3.20
2023-07-17T16:20:06.416Z,2.90
2023-07-17T16:22:33.511Z,3.00
2023-07-17T16:25:00.617Z,2.85
2023-07-17T16:27:27.595Z,3.22
2023-07-17T16:29:58.333Z,3.03
2023-07-17T16:32:25.410Z,3.30
2023-07-17T16:34:52.754Z,3.50
2023-07-17T16:37:19.646Z,3.33
2023-07-17T16:39:46.529Z,3.05
2023-07-17T16:42:13.442Z,3.30
2023-07-17T16:44:41.685Z,3.10
2023-07-17T16:47:12.094Z,3.08
2023-07-17T16:49:39.006Z,2.85
2023-07-17T16:52:06.293Z,3.60
2023-07-17T16:54:33.200Z,3.17
2023-07-17T16:57:00.090Z,3.00
2023-07-17T16:59:27.969Z,3.60
2023-07-17T17:01:54.906Z,3.97
2023-07-17T17:04:22.090Z,3.15
2023-07-17T17:06:49.113Z,2.88
2023-07-17T17:09:17.853Z,3.20
2023-07-17T17:11:46.705Z,2.83
2023-07-17T17:14:13.926Z,3.22
2023-07-17T17:16:41.613Z,3.05
2023-07-17T17:19:08.769Z,3.30
2023-07-17T17:21:39.041Z,4.13
2023-07-17T17:24:06.266Z,4.82
2023-07-17T17:26:33.225Z,3.50
2023-07-17T17:29:00.143Z,3.33
2023-07-17T17:31:27.973Z,2.92
2023-07-17T17:33:56.191Z,2.08
2023-07-17T17:36:24.022Z,1.80
2023-07-17T17:38:51.881Z,2.47
2023-07-17T17:41:19.085Z,2.03
2023-07-17T17:43:46.387Z,2.70
2023-07-17T17:46:13.459Z,2.55
2023-07-17T17:48:40.617Z,2.40
2023-07-17T17:51:07.823Z,2.90
2023-07-17T17:53:34.751Z,2.75
2023-07-17T17:56:01.679Z,2.60
2023-07-17T17:58:29.321Z,2.63
2023-07-17T18:00:56.794Z,2.92
2023-07-17T18:03:26.514Z,2.75
2023-07-17T18:05:53.611Z,2.55
2023-07-17T18:08:20.576Z,2.25
2023-07-17T18:10:47.456Z,2.72
2023-07-17T18:13:14.448Z,3.25
2023-07-17T18:15:41.724Z,2.80
2023-07-17T18:18:09.553Z,2.63
2023-07-17T18:20:36.671Z,1.98
2023-07-17T18:23:03.599Z,2.50
2023-07-17T18:25:30.506Z,3.13
2023-07-17T18:27:58.160Z,2.67
2023-07-17T18:30:25.097Z,2.28
2023-07-17T18:32:52.231Z,3.10
2023-07-17T18:35:19.141Z,3.05
2023-07-17T18:37:46.500Z,2.25
2023-07-17T18:40:13.954Z,2.55
2023-07-17T18:42:40.826Z,2.88
2023-07-17T18:45:08.601Z,2.58
2023-07-17T18:47:35.772Z,2.15
2023-07-17T18:50:04.514Z,3.05
2023-07-17T18:52:31.476Z,2.58
2023-07-17T18:54:59.314Z,2.78
2023-07-17T18:57:26.296Z,2.67
2023-07-17T18:59:53.172Z,2.63
2023-07-17T19:02:20.092Z,2.83
2023-07-17T19:04:47.018Z,2.85
2023-07-17T19:07:13.991Z,2.65
2023-07-17T19:09:40.945Z,2.85
2023-07-17T19:12:11.434Z,3.10
2023-07-17T19:14:38.426Z,2.83
2023-07-17T19:17:05.780Z,2.80
2023-07-17T19:19:32.885Z,3.25
2023-07-17T19:22:01.252Z,3.78
2023-07-17T19:24:28.699Z,2.60
2023-07-17T19:26:55.730Z,3.00
2023-07-17T19:29:22.678Z,2.78
2023-07-17T19:31:49.818Z,2.92
2023-07-17T19:34:16.738Z,3.30
2023-07-17T19:36:44.560Z,2.95
2023-07-17T19:39:12.917Z,3.40
2023-07-17T19:41:40.054Z,2.63
2023-07-17T19:44:07.008Z,2.97
2023-07-17T19:46:34.138Z,2.63
2023-07-17T19:49:01.227Z,2.85
2023-07-17T19:51:28.090Z,2.17
2023-07-17T19:53:55.041Z,3.53
2023-07-17T19:56:21.912Z,2.95
2023-07-17T19:58:51.415Z,2.95
2023-07-17T20:01:23.396Z,2.85
2023-07-17T20:03:53.060Z,3.40
2023-07-17T20:06:21.328Z,2.85
2023-07-17T20:09:01.085Z,2.60
2023-07-17T20:11:27.980Z,2.55
2023-07-17T20:13:54.871Z,3.17
2023-07-17T20:16:25.045Z,2.92
2023-07-17T20:18:52.118Z,2.80
2023-07-17T20:21:19.262Z,2.70
2023-07-17T20:23:46.737Z,2.83
2023-07-17T20:26:13.612Z,2.65
2023-07-17T20:28:40.524Z,2.83
2023-07-17T20:31:07.452Z,2.50
2023-07-17T20:33:34.415Z,2.97
2023-07-17T20:36:01.290Z,2.50
2023-07-17T20:38:28.972Z,2.72
2023-07-17T20:40:56.756Z,2.30
2023-07-17T20:43:23.711Z,2.60
2023-07-17T20:45:53.641Z,2.25
2023-07-17T20:48:22.458Z,2.83
2023-07-17T20:51:06.598Z,3.22
2023-07-17T20:53:36.420Z,2.20
2023-07-17T20:56:07.268Z,2.63
2023-07-17T20:58:44.494Z,2.92
2023-07-17T21:01:23.402Z,2.72
2023-07-17T21:03:58.968Z,2.80
2023-07-17T21:06:28.305Z,2.40
2023-07-17T21:08:58.689Z,3.28
2023-07-17T21:11:30.008Z,2.70
2023-07-17T21:13:58.689Z,2.17
2023-07-17T21:16:26.152Z,2.60
2023-07-17T21:18:54.850Z,2.38
2023-07-17T21:21:21.798Z,2.60
2023-07-17T21:23:48.890Z,4.30
2023-07-17T21:26:15.786Z,2.88
2023-07-17T21:28:59.253Z,3.05
2023-07-17T21:31:26.166Z,3.47
2023-07-17T21:33:53.148Z,2.65
2023-07-17T21:36:20.034Z,2.88
2023-07-17T21:38:46.957Z,3.38
2023-07-17T21:41:14.047Z,2.95
2023-07-17T21:43:41.738Z,3.25
2023-07-17T21:46:08.601Z,3.75
2023-07-17T21:48:35.520Z,3.65
2023-07-17T21:51:02.432Z,3.33
2023-07-17T21:53:29.284Z,3.95
2023-07-17T21:55:57.014Z,3.15
2023-07-17T21:58:24.164Z,2.90
2023-07-17T22:00:51.947Z,3.80
2023-07-17T22:03:19.101Z,3.40
2023-07-17T22:05:46.252Z,3.80
2023-07-17T22:08:13.319Z,3.50
2023-07-17T22:10:40.185Z,3.50
2023-07-17T22:13:07.390Z,3.90
2023-07-17T22:15:34.297Z,3.22
2023-07-17T22:18:05.234Z,3.50
2023-07-17T22:20:39.607Z,4.07
2023-07-17T22:23:06.517Z,3.80
2023-07-17T22:25:33.376Z,3.28
2023-07-17T22:28:04.584Z,3.42
2023-07-17T22:30:32.633Z,3.88
2023-07-17T22:33:01.477Z,4.05
2023-07-17T22:35:29.586Z,3.47
2023-07-17T22:37:56.630Z,3.25
2023-07-17T22:40:23.671Z,3.13
2023-07-17T22:42:50.553Z,3.55
2023-07-17T22:45:17.545Z,3.05
2023-07-17T22:47:44.452Z,3.65
2023-07-17T22:50:11.753Z,3.50
2023-07-17T22:52:38.669Z,4.53
2023-07-17T22:55:08.668Z,3.28
2023-07-17T22:57:35.983Z,3.88
2023-07-17T23:00:03.393Z,3.65
2023-07-17T23:02:30.342Z,3.60
2023-07-17T23:04:57.332Z,3.17
2023-07-17T23:07:24.333Z,4.75
2023-07-17T23:09:51.259Z,3.05
2023-07-17T23:12:18.319Z,3.90
2023-07-17T23:14:45.202Z,4.25
2023-07-17T23:17:12.618Z,4.22
2023-07-17T23:19:39.492Z,3.83
2023-07-17T23:22:06.569Z,3.70
2023-07-17T23:24:33.403Z,3.47
2023-07-17T23:27:00.277Z,4.20
2023-07-17T23:29:27.212Z,4.07
2023-07-17T23:31:54.518Z,3.90
2023-07-17T23:34:22.195Z,2.97
2023-07-17T23:36:50.371Z,3.53
2023-07-17T23:39:18.961Z,3.75
2023-07-17T23:41:50.872Z,3.70
2023-07-17T23:44:17.899Z,3.70
2023-07-17T23:46:44.969Z,3.88
2023-07-17T23:49:11.893Z,3.88
2023-07-17T23:51:38.822Z,3.80
2023-07-17T23:54:05.731Z,3.85
2023-07-17T23:56:32.571Z,3.30
2023-07-17T23:58:59.393Z,3.50
